createdAt,value
2022-12-11T00:00:24.327Z,11.01
2022-12-11T00:03:12.773Z,11.07
2022-12-11T00:05:58.676Z,10.88
2022-12-11T00:08:43.887Z,10.98
2022-12-11T00:11:27.036Z,11.08
2022-12-11T00:14:10.288Z,10.91
2022-12-11T00:16:53.552Z,10.99
2022-12-11T00:19:37.130Z,11.01
2022-12-11T00:22:20.241Z,11.13
2022-12-11T00:25:05.233Z,11.15
2022-12-11T00:27:48.540Z,11.11
2022-12-11T00:30:31.696Z,10.92
2022-12-11T00:33:16.432Z,10.86
2022-12-11T00:35:59.467Z,10.82
2022-12-11T00:38:43.942Z,10.81
2022-12-11T00:41:28.412Z,10.90
2022-12-11T00:44:11.561Z,10.92
2022-12-11T00:46:54.715Z,10.91
2022-12-11T00:49:37.825Z,10.89
2022-12-11T00:52:21.156Z,10.81
2022-12-11T00:55:04.551Z,10.77
2022-12-11T00:57:49.615Z,10.77
2022-12-11T01:00:32.752Z,10.81
2022-12-11T01:03:19.539Z,10.88
2022-12-11T01:06:02.873Z,10.95
2022-12-11T01:08:47.425Z,11.02
2022-12-11T01:11:29.638Z,10.84
2022-12-11T01:14:14.576Z,10.94
2022-12-11T01:16:58.072Z,10.98
2022-12-11T01:19:41.244Z,11.09
2022-12-11T01:22:24.371Z,11.10
2022-12-11T01:25:09.795Z,10.99
2022-12-11T01:27:55.835Z,11.04
2022-12-11T01:30:42.935Z,11.17
2022-12-11T01:33:26.218Z,11.20
2022-12-11T01:36:11.112Z,11.27
2022-12-11T01:38:54.609Z,11.33
2022-12-11T01:41:37.918Z,11.11
2022-12-11T01:44:54.262Z,11.11
2022-12-11T01:47:39.191Z,11.08
2022-12-11T01:50:22.582Z,10.99
2022-12-11T01:53:08.495Z,10.83
2022-12-11T01:55:52.872Z,10.89
2022-12-11T01:58:41.834Z,10.84
2022-12-11T02:01:33.962Z,10.83
2022-12-11T02:04:19.998Z,10.73
2022-12-11T02:07:03.781Z,10.68
2022-12-11T02:09:49.364Z,10.61
2022-12-11T02:12:40.255Z,10.45
2022-12-11T02:15:32.654Z,10.53
2022-12-11T02:18:21.523Z,10.62
2022-12-11T02:21:11.445Z,10.63
2022-12-11T02:24:20.073Z,10.67
2022-12-11T02:27:21.032Z,10.82
2022-12-11T02:30:08.249Z,10.97
2022-12-11T02:32:56.297Z,11.06
2022-12-11T02:35:43.153Z,11.29
2022-12-11T02:38:31.578Z,11.28
2022-12-11T02:41:15.014Z,11.24
2022-12-11T02:43:59.741Z,11.63
2022-12-11T02:46:45.666Z,12.14
2022-12-11T02:49:30.274Z,12.23
2022-12-11T02:52:15.916Z,12.35
2022-12-11T02:55:01.880Z,12.43
2022-12-11T02:57:48.932Z,12.64
2022-12-11T03:00:33.387Z,12.75
2022-12-11T03:03:17.858Z,12.85
2022-12-11T03:06:01.668Z,13.01
2022-12-11T03:08:44.720Z,13.02
2022-12-11T03:11:28.175Z,13.07
2022-12-11T03:14:11.484Z,13.01
2022-12-11T03:17:01.329Z,13.08
2022-12-11T03:19:55.210Z,13.10
2022-12-11T03:22:43.241Z,13.09
2022-12-11T03:25:34.532Z,13.27
2022-12-11T03:28:21.089Z,13.61
2022-12-11T03:31:09.258Z,13.91
2022-12-11T03:33:56.024Z,14.27
2022-12-11T03:36:42.168Z,14.36
2022-12-11T03:39:32.170Z,14.54
2022-12-11T03:42:17.792Z,14.02
2022-12-11T03:45:03.693Z,13.68
2022-12-11T03:47:49.653Z,13.65
2022-12-11T03:50:36.678Z,13.71
2022-12-11T03:53:22.258Z,14.29
2022-12-11T03:56:08.055Z,14.65
2022-12-11T03:58:51.340Z,14.72
2022-12-11T04:01:34.503Z,14.71
2022-12-11T04:04:18.200Z,14.67
2022-12-11T04:07:01.433Z,14.52
2022-12-11T04:09:46.023Z,14.43
2022-12-11T04:12:29.206Z,14.41
2022-12-11T04:15:12.791Z,14.26
2022-12-11T04:18:13.812Z,14.26
2022-12-11T04:21:15.041Z,14.23
2022-12-11T04:24:16.370Z,14.15
2022-12-11T04:27:01.102Z,13.97
2022-12-11T04:29:44.313Z,14.04
2022-12-11T04:32:28.053Z,13.95
2022-12-11T04:35:12.940Z,14.04
2022-12-11T04:37:56.220Z,14.07
2022-12-11T04:40:39.569Z,14.16
2022-12-11T04:43:24.599Z,14.19
2022-12-11T04:46:11.322Z,14.20
2022-12-11T04:48:57.575Z,14.29
2022-12-11T04:51:41.068Z,14.29
2022-12-11T04:54:24.164Z,14.27
2022-12-11T04:57:07.741Z,14.30
2022-12-11T04:59:52.775Z,14.56
2022-12-11T05:02:37.631Z,14.83
2022-12-11T05:05:22.273Z,14.49
2022-12-11T05:08:05.888Z,14.52
2022-12-11T05:10:57.617Z,14.40
2022-12-11T05:13:41.626Z,14.38
2022-12-11T05:16:29.163Z,14.53
2022-12-11T05:19:12.476Z,14.59
2022-12-11T05:21:57.181Z,14.71
2022-12-11T05:24:40.506Z,14.83
2022-12-11T05:27:24.115Z,14.88
2022-12-11T05:30:10.273Z,14.80
2022-12-11T05:32:55.129Z,14.79
2022-12-11T05:35:38.349Z,14.74
2022-12-11T05:38:22.047Z,14.78
2022-12-11T05:41:08.129Z,14.91
2022-12-11T05:43:51.547Z,14.90
2022-12-11T05:46:35.848Z,14.74
2022-12-11T05:49:22.629Z,14.85
2022-12-11T05:52:09.191Z,14.92
2022-12-11T05:54:52.596Z,14.75
2022-12-11T05:57:35.832Z,14.82
2022-12-11T06:00:19.007Z,14.79
2022-12-11T06:03:02.213Z,14.72
2022-12-11T06:05:46.837Z,14.70
2022-12-11T06:08:30.187Z,14.83
2022-12-11T06:11:18.379Z,14.97
2022-12-11T06:14:05.567Z,15.09
2022-12-11T06:16:48.721Z,15.16
2022-12-11T06:19:36.578Z,15.24
2022-12-11T06:22:21.963Z,15.47
2022-12-11T06:25:06.014Z,15.57
2022-12-11T06:27:49.493Z,15.70
2022-12-11T06:30:38.925Z,15.76
2022-12-11T06:33:22.712Z,15.75
2022-12-11T06:36:07.472Z,15.75
2022-12-11T06:38:52.609Z,15.65
2022-12-11T06:41:35.992Z,15.70
2022-12-11T06:44:19.116Z,15.75
2022-12-11T06:47:02.626Z,15.92
2022-12-11T06:49:45.957Z,16.02
2022-12-11T06:52:29.492Z,16.17
2022-12-11T06:55:14.213Z,16.40
2022-12-11T06:57:58.721Z,16.48
2022-12-11T07:00:43.239Z,16.46
2022-12-11T07:03:26.380Z,16.80
2022-12-11T07:06:09.702Z,16.92
2022-12-11T07:08:53.157Z,16.95
2022-12-11T07:11:37.705Z,17.64
2022-12-11T07:14:21.002Z,18.33
2022-12-11T07:17:04.151Z,18.96
2022-12-11T07:19:47.578Z,19.66
2022-12-11T07:22:30.978Z,19.93
2022-12-11T07:25:14.597Z,20.45
2022-12-11T07:48:01.868Z,17.26
2022-12-11T07:50:45.171Z,17.39
2022-12-11T07:53:28.462Z,18.40
2022-12-11T07:56:11.738Z,19.28
2022-12-11T07:58:56.809Z,20.98
2022-12-11T08:01:42.277Z,26.71
2022-12-11T08:04:25.549Z,27.68
2022-12-11T08:07:08.831Z,25.32
2022-12-11T08:09:51.995Z,23.29
2022-12-11T08:12:35.197Z,22.37
2022-12-11T08:15:19.898Z,21.49
2022-12-11T08:18:04.129Z,20.65
2022-12-11T08:20:47.197Z,19.91
2022-12-11T08:23:30.324Z,19.32
2022-12-11T08:26:16.124Z,18.87
2022-12-11T08:28:59.980Z,18.59
2022-12-11T08:31:47.384Z,18.27
2022-12-11T08:34:30.590Z,18.12
2022-12-11T08:37:13.812Z,17.67
2022-12-11T08:39:57.117Z,17.47
2022-12-11T08:42:41.631Z,17.41
2022-12-11T08:45:24.734Z,17.12
2022-12-11T08:48:09.396Z,17.09
2022-12-11T08:50:52.524Z,17.11
2022-12-11T08:53:35.949Z,17.49
2022-12-11T08:56:20.838Z,17.77
2022-12-11T08:59:04.312Z,19.05
2022-12-11T09:01:47.607Z,19.29
2022-12-11T09:04:32.422Z,19.25
2022-12-11T09:07:15.960Z,18.97
2022-12-11T09:09:59.030Z,18.79
2022-12-11T09:12:42.860Z,18.65
2022-12-11T09:15:26.692Z,18.64
2022-12-11T09:18:10.035Z,18.36
2022-12-11T09:21:01.667Z,18.20
2022-12-11T09:23:45.346Z,18.03
2022-12-11T09:26:30.149Z,17.86
2022-12-11T09:29:14.035Z,17.67
2022-12-11T09:31:58.494Z,17.59
2022-12-11T09:34:41.688Z,17.41
2022-12-11T09:37:26.338Z,17.04
2022-12-11T09:40:12.377Z,16.97
2022-12-11T09:43:01.890Z,16.74
2022-12-11T09:45:45.136Z,16.71
2022-12-11T09:48:28.821Z,16.49
2022-12-11T09:51:20.055Z,16.45
2022-12-11T09:54:06.432Z,16.59
2022-12-11T09:56:55.383Z,16.44
2022-12-11T09:59:46.837Z,16.45
2022-12-11T10:02:42.950Z,16.42
2022-12-11T10:05:35.383Z,16.24
2022-12-11T10:08:25.013Z,16.29
2022-12-11T10:11:36.617Z,16.50
2022-12-11T10:14:27.680Z,16.48
2022-12-11T10:17:13.843Z,16.51
2022-12-11T10:19:59.202Z,16.47
2022-12-11T10:22:42.589Z,16.32
2022-12-11T10:25:30.000Z,16.27
2022-12-11T10:28:16.570Z,16.13
2022-12-11T10:31:06.934Z,16.07
2022-12-11T10:33:59.340Z,15.66
2022-12-11T10:36:45.526Z,15.93
2022-12-11T10:39:29.476Z,16.47
2022-12-11T10:42:19.973Z,16.68
2022-12-11T10:45:07.365Z,16.81
2022-12-11T10:47:50.488Z,17.06
2022-12-11T10:50:33.812Z,17.42
2022-12-11T10:53:22.591Z,17.47
2022-12-11T10:56:06.428Z,17.59
2022-12-11T10:58:51.752Z,17.54
2022-12-11T11:01:37.462Z,17.11
2022-12-11T11:04:26.221Z,16.94
2022-12-11T11:07:14.768Z,17.00
2022-12-11T11:10:17.410Z,16.99
2022-12-11T11:13:03.685Z,17.00
2022-12-11T11:15:46.915Z,17.01
2022-12-11T11:18:32.988Z,16.66
2022-12-11T11:21:19.396Z,16.66
2022-12-11T11:24:02.557Z,16.32
2022-12-11T11:27:12.358Z,16.20
2022-12-11T11:29:53.112Z,16.07
2022-12-11T11:32:39.840Z,16.17
2022-12-11T11:35:29.180Z,16.36
2022-12-11T11:38:23.338Z,16.24
2022-12-11T11:41:15.374Z,16.44
2022-12-11T11:44:03.415Z,16.14
2022-12-11T11:46:51.415Z,16.16
2022-12-11T11:49:48.241Z,15.82
2022-12-11T11:52:40.407Z,15.55
2022-12-11T11:55:39.375Z,15.49
2022-12-11T11:58:27.812Z,15.38
2022-12-11T12:01:16.217Z,15.50
2022-12-11T12:04:00.150Z,15.60
2022-12-11T12:07:10.915Z,15.51
2022-12-11T12:10:02.687Z,15.40
2022-12-11T12:12:53.793Z,15.31
2022-12-11T12:15:45.235Z,15.35
2022-12-11T12:18:35.868Z,15.33
2022-12-11T12:21:27.203Z,15.22
2022-12-11T12:24:21.965Z,15.22
2022-12-11T12:27:50.539Z,15.14
2022-12-11T12:30:24.303Z,15.15
2022-12-11T12:33:23.250Z,15.18
2022-12-11T12:36:18.457Z,15.19
2022-12-11T12:39:03.761Z,14.83
2022-12-11T12:41:58.516Z,14.40
2022-12-11T12:44:57.646Z,14.14
2022-12-11T12:47:42.515Z,13.82
2022-12-11T12:50:28.431Z,13.63
2022-12-11T12:53:18.857Z,13.35
2022-12-11T12:56:04.542Z,13.02
2022-12-11T12:58:47.684Z,12.72
2022-12-11T13:01:32.916Z,12.18
2022-12-11T13:04:54.571Z,11.88
2022-12-11T13:07:33.972Z,11.56
2022-12-11T13:10:27.323Z,11.30
2022-12-11T13:13:32.794Z,11.07
2022-12-11T13:16:35.682Z,10.91
2022-12-11T13:19:29.323Z,10.72
2022-12-11T13:22:23.983Z,10.54
2022-12-11T13:25:22.521Z,10.38
2022-12-11T13:28:10.194Z,10.04
2022-12-11T13:31:09.869Z,9.88
2022-12-11T13:33:56.041Z,9.67
2022-12-11T13:36:42.193Z,9.19
2022-12-11T13:39:27.685Z,9.10
2022-12-11T13:42:24.997Z,9.16
2022-12-11T13:45:19.525Z,9.16
2022-12-11T13:48:02.850Z,9.02
2022-12-11T13:50:47.481Z,8.89
2022-12-11T13:53:32.425Z,8.77
2022-12-11T13:56:19.650Z,8.73
2022-12-11T13:59:02.984Z,8.72
2022-12-11T14:01:46.211Z,8.56
2022-12-11T14:04:31.519Z,8.54
2022-12-11T14:07:19.570Z,8.57
2022-12-11T14:10:10.122Z,8.27
2022-12-11T14:12:58.537Z,8.24
2022-12-11T14:15:46.256Z,7.99
2022-12-11T14:18:33.983Z,7.93
2022-12-11T14:21:21.872Z,7.89
2022-12-11T14:24:06.679Z,7.72
2022-12-11T14:26:53.876Z,7.51
2022-12-11T14:29:37.267Z,7.41
2022-12-11T14:32:29.555Z,7.27
2022-12-11T14:35:24.318Z,7.16
2022-12-11T14:38:14.612Z,7.03
2022-12-11T14:41:04.149Z,7.10
2022-12-11T14:43:51.700Z,6.98
2022-12-11T14:46:41.726Z,7.00
2022-12-11T14:49:31.032Z,6.94
2022-12-11T14:52:18.921Z,6.90
2022-12-11T14:55:07.819Z,6.69
2022-12-11T14:57:55.347Z,6.66
2022-12-11T15:00:39.938Z,6.54
2022-12-11T15:03:26.060Z,6.48
2022-12-11T15:06:25.991Z,6.37
2022-12-11T15:09:20.477Z,6.36
2022-12-11T15:12:11.548Z,6.29
2022-12-11T15:14:58.462Z,6.15
2022-12-11T15:17:45.221Z,6.09
2022-12-11T15:20:31.958Z,6.12
2022-12-11T15:23:18.785Z,6.02
2022-12-11T15:26:03.972Z,6.01
2022-12-11T15:28:47.189Z,5.91
2022-12-11T15:31:31.693Z,5.84
2022-12-11T15:34:24.831Z,5.76
2022-12-11T15:37:19.352Z,5.78
2022-12-11T15:40:04.918Z,5.82
2022-12-11T15:42:48.194Z,5.66
2022-12-11T15:45:31.373Z,5.75
2022-12-11T15:48:14.520Z,5.78
2022-12-11T15:51:01.634Z,5.80
2022-12-11T15:53:45.068Z,5.69
2022-12-11T15:56:28.283Z,5.75
2022-12-11T15:59:12.229Z,5.61
2022-12-11T16:01:55.456Z,5.52
2022-12-11T16:04:38.575Z,5.47
2022-12-11T16:07:25.262Z,5.38
2022-12-11T16:10:14.270Z,5.47
2022-12-11T16:12:59.782Z,5.30
2022-12-11T16:15:45.256Z,5.34
2022-12-11T16:18:28.571Z,5.36
2022-12-11T16:21:13.607Z,5.36
2022-12-11T16:24:01.656Z,5.34
2022-12-11T16:26:44.755Z,5.35
2022-12-11T16:29:27.986Z,5.24
2022-12-11T16:32:11.676Z,5.26
2022-12-11T16:34:55.052Z,5.30
2022-12-11T16:37:38.408Z,5.34
2022-12-11T16:40:23.514Z,5.16
2022-12-11T16:43:06.947Z,5.26
2022-12-11T16:45:56.063Z,5.32
2022-12-11T16:48:39.452Z,5.24
2022-12-11T16:51:22.873Z,5.24
2022-12-11T16:54:06.979Z,5.30
2022-12-11T16:56:51.802Z,5.22
2022-12-11T16:59:37.398Z,5.28
2022-12-11T17:02:21.492Z,5.27
2022-12-11T17:05:05.284Z,5.39
2022-12-11T17:07:48.477Z,5.30
2022-12-11T17:10:31.842Z,5.29
2022-12-11T17:13:16.490Z,5.16
2022-12-11T17:15:59.704Z,5.10
2022-12-11T17:18:43.798Z,5.13
2022-12-11T17:21:26.935Z,5.21
2022-12-11T17:24:10.760Z,5.15
2022-12-11T17:26:54.200Z,5.01
2022-12-11T17:29:38.774Z,5.18
2022-12-11T17:32:22.050Z,5.15
2022-12-11T17:35:05.676Z,5.08
2022-12-11T17:37:48.736Z,5.13
2022-12-11T17:40:32.439Z,5.17
2022-12-11T17:43:15.584Z,5.01
2022-12-11T17:46:00.262Z,4.85
2022-12-11T17:48:44.700Z,4.81
2022-12-11T17:51:28.836Z,4.65
2022-12-11T17:54:14.843Z,4.51
2022-12-11T17:56:58.114Z,4.43
2022-12-11T17:59:41.376Z,4.39
2022-12-11T18:02:26.350Z,4.31
2022-12-11T18:05:09.942Z,4.24
2022-12-11T18:07:57.731Z,4.20
2022-12-11T18:10:41.474Z,4.08
2022-12-11T18:13:25.502Z,4.02
2022-12-11T18:16:11.733Z,3.95
2022-12-11T18:18:57.754Z,3.87
2022-12-11T18:21:43.838Z,3.89
2022-12-11T18:24:31.760Z,3.94
2022-12-11T18:27:15.305Z,3.94
2022-12-11T18:29:58.467Z,4.03
2022-12-11T18:32:41.502Z,4.12
2022-12-11T18:35:26.709Z,4.03
2022-12-11T18:38:10.404Z,4.12
2022-12-11T18:40:53.538Z,4.19
2022-12-11T18:43:37.021Z,4.26
2022-12-11T18:46:22.507Z,4.11
2022-12-11T18:49:05.966Z,4.08
2022-12-11T18:51:51.155Z,4.02
2022-12-11T18:54:34.746Z,4.01
2022-12-11T18:57:17.897Z,3.92
2022-12-11T19:00:07.529Z,3.89
2022-12-11T19:02:52.701Z,3.80
2022-12-11T19:05:42.411Z,3.83
2022-12-11T19:08:27.700Z,3.94
2022-12-11T19:11:14.772Z,4.00
2022-12-11T19:13:58.818Z,4.00
2022-12-11T19:16:45.464Z,3.96
2022-12-11T19:19:28.914Z,3.91
2022-12-11T19:22:12.027Z,3.77
2022-12-11T19:24:56.850Z,3.78
2022-12-11T19:27:39.973Z,3.67
2022-12-11T19:30:23.367Z,3.59
2022-12-11T19:33:06.718Z,3.64
2022-12-11T19:35:49.983Z,3.62
2022-12-11T19:38:33.175Z,3.61
2022-12-11T19:41:20.612Z,3.60
2022-12-11T19:44:03.825Z,3.56
2022-12-11T19:46:47.204Z,3.65
2022-12-11T19:49:33.695Z,3.78
2022-12-11T19:52:17.250Z,3.83
2022-12-11T19:55:03.182Z,3.90
2022-12-11T19:57:48.073Z,3.87
2022-12-11T20:00:31.365Z,3.97
2022-12-11T20:03:14.970Z,3.98
2022-12-11T20:06:02.510Z,3.97
2022-12-11T20:08:46.185Z,4.00
2022-12-11T20:11:29.807Z,3.95
2022-12-11T20:14:21.330Z,3.79
2022-12-11T20:17:14.215Z,3.72
2022-12-11T20:19:57.866Z,3.59
2022-12-11T20:22:41.258Z,3.48
2022-12-11T20:25:26.057Z,3.49
2022-12-11T20:28:10.134Z,3.50
2022-12-11T20:30:55.554Z,3.39
2022-12-11T20:33:39.062Z,3.41
2022-12-11T20:36:23.758Z,3.43
2022-12-11T20:39:07.399Z,3.49
2022-12-11T20:41:50.706Z,3.58
2022-12-11T20:44:33.930Z,3.66
2022-12-11T20:47:19.934Z,3.64
2022-12-11T20:50:03.891Z,3.68
2022-12-11T20:52:47.334Z,3.62
2022-12-11T20:55:30.510Z,3.64
2022-12-11T20:58:13.651Z,3.76
2022-12-11T21:00:57.624Z,3.78
2022-12-11T21:03:42.520Z,3.76
2022-12-11T21:06:28.506Z,3.81
2022-12-11T21:09:14.880Z,3.95
2022-12-11T21:11:58.716Z,4.00
2022-12-11T21:14:42.379Z,3.96
2022-12-11T21:17:25.720Z,4.01
2022-12-11T21:20:12.203Z,4.08
2022-12-11T21:22:57.660Z,4.06
2022-12-11T21:25:41.438Z,4.10
2022-12-11T21:28:24.928Z,4.13
2022-12-11T21:31:12.997Z,4.26
2022-12-11T21:33:58.472Z,4.25
2022-12-11T21:36:45.475Z,4.40
2022-12-11T21:39:31.630Z,4.48
2022-12-11T21:42:18.229Z,4.57
2022-12-11T21:48:04.910Z,4.72
2022-12-11T21:50:48.076Z,4.75
2022-12-11T21:53:32.610Z,4.71
2022-12-11T21:56:18.743Z,4.72
2022-12-11T21:59:02.559Z,4.71
2022-12-11T22:01:47.213Z,4.66
2022-12-11T22:04:30.259Z,4.31
2022-12-11T22:07:13.258Z,4.33
2022-12-11T22:09:58.132Z,4.35
2022-12-11T22:12:41.274Z,4.27
2022-12-11T22:15:24.624Z,4.38
2022-12-11T22:18:08.039Z,4.42
2022-12-11T22:20:51.216Z,4.32
2022-12-11T22:23:35.773Z,4.02
2022-12-11T22:26:22.402Z,3.88
2022-12-11T22:29:05.529Z,3.95
2022-12-11T22:31:48.663Z,3.89
2022-12-11T22:34:31.834Z,4.07
2022-12-11T22:37:14.899Z,4.23
2022-12-11T22:39:58.019Z,4.28
2022-12-11T22:42:44.157Z,4.32
2022-12-11T22:45:27.343Z,4.34
2022-12-11T22:48:11.050Z,4.34
2022-12-11T22:50:54.724Z,4.46
2022-12-11T22:53:37.814Z,4.63
2022-12-11T22:56:20.858Z,4.76
2022-12-11T22:59:05.395Z,4.68
2022-12-11T23:01:48.739Z,4.76
2022-12-11T23:04:31.918Z,4.87
2022-12-11T23:07:15.005Z,4.93
2022-12-11T23:09:58.083Z,4.89
2022-12-11T23:12:41.197Z,4.95
2022-12-11T23:15:25.802Z,4.94
2022-12-11T23:18:08.942Z,4.76
2022-12-11T23:20:51.991Z,4.74
2022-12-11T23:23:35.129Z,4.67
2022-12-11T23:26:19.835Z,4.73
2022-12-11T23:29:03.458Z,4.70
2022-12-11T23:31:48.008Z,4.79
2022-12-11T23:34:31.171Z,4.80
2022-12-11T23:37:14.532Z,4.80
2022-12-11T23:39:57.750Z,4.83
2022-12-11T23:42:40.882Z,4.65
2022-12-11T23:45:24.108Z,4.76
2022-12-11T23:48:08.562Z,4.83
2022-12-11T23:50:51.598Z,4.82
2022-12-11T23:53:34.836Z,4.76
2022-12-11T23:56:20.391Z,4.56
2022-12-11T23:59:03.499Z,4.56
